createdAt,value
2022-10-21T00:00:20.291Z,10.83
2022-10-21T00:02:50.766Z,11.00
2022-10-21T00:05:26.036Z,10.40
2022-10-21T00:07:54.966Z,11.07
2022-10-21T00:10:25.571Z,10.87
2022-10-21T00:12:54.369Z,10.33
2022-10-21T00:15:24.244Z,10.70
2022-10-21T00:17:53.030Z,11.87
2022-10-21T00:22:51.933Z,12.63
2022-10-21T00:25:20.768Z,12.60
2022-10-21T00:27:49.549Z,14.60
2022-10-21T00:30:18.753Z,15.40
2022-10-21T00:32:49.528Z,15.63
2022-10-21T00:35:34.425Z,16.70
2022-10-21T00:38:03.318Z,16.57
2022-10-21T00:40:32.368Z,14.70
2022-10-21T00:43:01.856Z,12.60
2022-10-21T00:45:33.882Z,12.50
2022-10-21T00:48:05.588Z,10.27
2022-10-21T00:50:42.528Z,10.67
2022-10-21T00:53:13.687Z,10.87
2022-10-21T00:55:45.643Z,10.07
2022-10-21T00:58:14.839Z,10.17
2022-10-21T01:00:43.653Z,10.77
2022-10-21T01:03:13.999Z,11.23
2022-10-21T01:05:44.673Z,11.23
2022-10-21T01:08:17.960Z,12.93
2022-10-21T01:10:47.277Z,12.13
2022-10-21T01:13:47.994Z,12.90
2022-10-21T01:16:25.695Z,13.80
2022-10-21T01:19:00.165Z,13.90
2022-10-21T01:21:46.964Z,14.87
2022-10-21T01:24:21.473Z,15.77
2022-10-21T01:27:08.269Z,14.60
2022-10-21T01:29:42.901Z,14.90
2022-10-21T01:32:33.957Z,14.77
2022-10-21T01:35:05.783Z,13.50
2022-10-21T01:37:52.835Z,14.77
2022-10-21T01:40:59.662Z,13.00
2022-10-21T01:43:40.284Z,12.17
2022-10-21T01:46:17.965Z,12.27
2022-10-21T01:48:52.400Z,11.67
2022-10-21T01:54:15.756Z,12.37
2022-10-21T01:56:46.562Z,13.00
2022-10-21T01:59:17.231Z,12.37
2022-10-21T02:01:47.788Z,12.87
2022-10-21T02:04:18.822Z,13.00
2022-10-21T02:06:47.583Z,13.00
2022-10-21T02:09:16.426Z,12.13
2022-10-21T02:11:59.681Z,13.80
2022-10-21T02:14:33.885Z,13.70
2022-10-21T02:17:02.990Z,13.27
2022-10-21T02:22:04.266Z,14.20
2022-10-21T02:24:41.964Z,14.37
2022-10-21T02:27:10.650Z,13.73
2022-10-21T02:29:42.243Z,13.47
2022-10-21T02:32:30.359Z,13.40
2022-10-21T02:35:17.131Z,13.40
2022-10-21T02:38:24.942Z,13.67
2022-10-21T02:40:59.714Z,13.93
2022-10-21T02:43:37.197Z,13.27
2022-10-21T02:46:11.801Z,14.23
2022-10-21T02:49:33.138Z,14.27
2022-10-21T02:52:02.278Z,13.70
2022-10-21T02:54:35.190Z,13.37
2022-10-21T02:57:03.852Z,13.43
2022-10-21T02:59:32.516Z,14.73
2022-10-21T03:02:01.201Z,14.77
2022-10-21T03:04:30.033Z,14.93
2022-10-21T03:06:58.844Z,13.83
2022-10-21T03:09:27.492Z,14.10
2022-10-21T03:11:56.210Z,14.07
2022-10-21T03:14:24.873Z,14.33
2022-10-21T03:16:53.577Z,14.37
2022-10-21T03:19:22.295Z,15.27
2022-10-21T03:21:51.020Z,14.47
2022-10-21T03:24:27.991Z,15.23
2022-10-21T03:26:50.205Z,15.83
2022-10-21T03:29:18.856Z,15.40
2022-10-21T03:31:47.550Z,15.33
2022-10-21T03:34:16.247Z,14.63
2022-10-21T03:36:47.259Z,14.37
2022-10-21T03:39:16.417Z,14.73
2022-10-21T03:41:47.792Z,14.50
2022-10-21T03:44:16.501Z,13.73
2022-10-21T03:46:45.139Z,14.73
2022-10-21T03:49:20.048Z,15.97
2022-10-21T03:51:44.112Z,14.97
2022-10-21T03:54:12.879Z,15.27
2022-10-21T03:56:41.370Z,15.53
2022-10-21T03:59:10.014Z,15.10
2022-10-21T04:01:38.758Z,15.77
2022-10-21T04:04:07.427Z,15.57
2022-10-21T04:06:36.080Z,16.33
2022-10-21T04:09:05.177Z,15.67
2022-10-21T04:11:33.849Z,16.23
2022-10-21T04:14:03.942Z,15.93
2022-10-21T04:16:33.947Z,16.07
2022-10-21T04:19:02.987Z,16.43
2022-10-21T04:21:31.496Z,15.53
2022-10-21T04:24:00.000Z,16.13
2022-10-21T04:26:28.577Z,16.27
2022-10-21T04:28:57.209Z,16.30
2022-10-21T04:31:29.869Z,16.33
2022-10-21T04:33:56.248Z,16.67
2022-10-21T04:36:24.771Z,15.87
2022-10-21T04:38:53.410Z,17.73
2022-10-21T04:41:22.146Z,16.93
2022-10-21T04:43:50.674Z,16.23
2022-10-21T04:46:20.918Z,18.70
2022-10-21T04:48:49.684Z,17.70
2022-10-21T04:51:18.471Z,17.33
2022-10-21T04:53:47.240Z,17.40
2022-10-21T04:56:15.881Z,17.27
2022-10-21T04:58:44.559Z,16.50
2022-10-21T05:01:13.756Z,17.50
2022-10-21T05:03:42.351Z,18.17
2022-10-21T05:06:10.908Z,17.80
2022-10-21T05:08:39.583Z,18.77
2022-10-21T05:11:11.182Z,17.83
2022-10-21T05:13:39.704Z,17.30
2022-10-21T05:16:08.570Z,18.73
2022-10-21T05:18:37.175Z,17.43
2022-10-21T05:21:05.911Z,16.93
2022-10-21T05:23:34.589Z,17.30
2022-10-21T05:26:03.179Z,17.93
2022-10-21T05:28:31.839Z,17.77
2022-10-21T05:31:00.445Z,18.37
2022-10-21T05:33:36.310Z,18.10
2022-10-21T05:36:08.560Z,16.30
2022-10-21T05:38:37.164Z,18.27
2022-10-21T05:41:05.791Z,17.10
2022-10-21T05:43:34.540Z,17.20
2022-10-21T05:46:05.254Z,16.93
2022-10-21T05:48:34.946Z,17.80
2022-10-21T05:51:04.188Z,18.03
2022-10-21T05:53:34.313Z,18.13
2022-10-21T05:56:05.688Z,16.87
2022-10-21T05:58:35.636Z,18.00
2022-10-21T06:01:04.745Z,16.43
2022-10-21T06:03:35.194Z,17.63
2022-10-21T06:06:06.084Z,18.83
2022-10-21T06:08:37.416Z,19.50
2022-10-21T06:11:09.012Z,22.40
2022-10-21T06:13:38.323Z,24.10
2022-10-21T06:16:08.617Z,23.33
2022-10-21T06:18:37.271Z,23.70
2022-10-21T06:21:06.249Z,23.00
2022-10-21T06:23:36.117Z,23.23
2022-10-21T06:26:07.851Z,23.40
2022-10-21T06:28:40.546Z,20.23
2022-10-21T06:31:11.629Z,21.23
2022-10-21T06:33:40.249Z,21.20
2022-10-21T06:36:09.117Z,20.27
2022-10-21T06:38:38.347Z,17.90
2022-10-21T06:41:12.446Z,19.73
2022-10-21T06:43:40.150Z,17.83
2022-10-21T06:46:12.009Z,17.90
2022-10-21T06:48:40.665Z,15.80
2022-10-21T06:51:12.286Z,14.83
2022-10-21T06:53:40.857Z,13.80
2022-10-21T06:56:12.667Z,12.97
2022-10-21T06:58:46.480Z,11.73
2022-10-21T07:01:34.804Z,12.40
2022-10-21T07:03:57.512Z,12.57
2022-10-21T07:06:26.298Z,12.20
2022-10-21T07:08:59.668Z,13.60
2022-10-21T07:11:29.428Z,12.63
2022-10-21T07:14:01.228Z,13.30
2022-10-21T07:16:38.173Z,15.67
2022-10-21T07:19:12.004Z,13.10
2022-10-21T07:21:41.936Z,13.40
2022-10-21T07:24:11.782Z,13.70
2022-10-21T07:26:40.513Z,13.00
2022-10-21T07:29:09.274Z,12.93
2022-10-21T07:31:39.549Z,12.77
2022-10-21T07:34:09.708Z,14.07
2022-10-21T07:36:41.259Z,12.70
2022-10-21T07:39:14.220Z,14.13
2022-10-21T07:42:00.123Z,14.73
2022-10-21T07:44:30.903Z,14.20
2022-10-21T07:46:59.512Z,13.73
2022-10-21T07:49:28.123Z,14.70
2022-10-21T07:51:57.569Z,14.93
2022-10-21T07:54:26.421Z,14.50
2022-10-21T07:56:55.179Z,14.63
2022-10-21T07:59:24.185Z,13.50
2022-10-21T08:01:54.084Z,14.60
2022-10-21T08:04:26.229Z,14.50
2022-10-21T08:06:57.441Z,14.50
2022-10-21T08:09:29.194Z,14.23
2022-10-21T08:11:59.330Z,14.53
2022-10-21T08:14:28.015Z,14.40
2022-10-21T08:17:02.076Z,13.98
2022-10-21T08:19:30.950Z,15.15
2022-10-21T08:27:47.283Z,16.12
2022-10-21T08:30:15.976Z,16.02
2022-10-21T08:32:44.741Z,16.32
2022-10-21T08:35:15.415Z,14.55
2022-10-21T08:37:45.324Z,16.37
2022-10-21T08:40:14.282Z,16.43
2022-10-21T08:42:46.287Z,16.02
2022-10-21T08:45:17.675Z,15.68
2022-10-21T08:47:49.281Z,15.25
2022-10-21T08:50:23.322Z,14.20
2022-10-21T08:52:57.783Z,15.90
2022-10-21T08:55:37.606Z,14.98
2022-10-21T08:58:07.182Z,15.25
2022-10-21T09:00:57.622Z,16.35
2022-10-21T09:03:32.085Z,16.12
2022-10-21T09:06:12.286Z,15.93
2022-10-21T09:08:47.376Z,14.45
2022-10-21T09:11:34.501Z,15.63
2022-10-21T09:14:11.976Z,16.20
2022-10-21T09:17:04.599Z,13.62
2022-10-21T09:19:40.989Z,14.85
2022-10-21T09:22:34.250Z,13.83
2022-10-21T09:25:19.437Z,13.75
2022-10-21T09:27:56.434Z,14.45
2022-10-21T09:30:24.880Z,14.40
2022-10-21T09:32:56.592Z,14.05
2022-10-21T09:35:37.410Z,14.90
2022-10-21T09:38:27.274Z,14.83
2022-10-21T09:41:01.517Z,13.70
2022-10-21T09:43:31.606Z,13.40
2022-10-21T09:46:03.808Z,12.60
2022-10-21T09:49:00.879Z,15.13
2022-10-21T09:51:32.401Z,13.13
2022-10-21T09:54:12.834Z,14.00
2022-10-21T09:57:00.690Z,14.43
2022-10-21T09:59:33.231Z,13.80
2022-10-21T10:02:09.455Z,12.05
2022-10-21T10:04:38.111Z,12.65
2022-10-21T10:07:34.020Z,12.68
2022-10-21T10:10:03.159Z,12.98
2022-10-21T10:12:31.898Z,12.95
2022-10-21T10:15:03.461Z,12.28
2022-10-21T10:17:38.655Z,13.03
2022-10-21T10:20:10.315Z,13.10
2022-10-21T10:23:03.987Z,13.32
2022-10-21T10:25:35.533Z,13.88
2022-10-21T10:28:13.420Z,12.90
2022-10-21T10:30:48.557Z,14.10
2022-10-21T10:33:22.729Z,12.93
2022-10-21T10:35:54.504Z,12.85
2022-10-21T10:38:37.823Z,12.88
2022-10-21T10:41:16.470Z,13.38
2022-10-21T10:43:57.792Z,11.85
2022-10-21T10:46:32.569Z,13.78
2022-10-21T10:49:22.694Z,13.20
2022-10-21T10:52:12.543Z,12.60
2022-10-21T10:54:43.508Z,12.30
2022-10-21T10:59:56.395Z,11.65
2022-10-21T11:02:30.717Z,11.05
2022-10-21T11:05:29.696Z,10.18
2022-10-21T11:08:17.938Z,10.40
2022-10-21T11:10:55.345Z,9.95
2022-10-21T11:13:25.910Z,11.15
2022-10-21T11:16:07.664Z,11.80
2022-10-21T11:18:51.092Z,11.22
2022-10-21T11:21:45.830Z,10.15
2022-10-21T11:24:53.115Z,10.28
2022-10-21T11:27:47.252Z,9.78
2022-10-21T11:30:25.915Z,10.45
2022-10-21T11:33:17.346Z,9.93
2022-10-21T11:35:58.138Z,11.20
2022-10-21T11:38:46.209Z,11.48
2022-10-21T11:41:35.839Z,11.18
2022-10-21T11:44:16.453Z,11.35
2022-10-21T11:47:08.403Z,11.18
2022-10-21T11:49:55.262Z,11.22
2022-10-21T11:52:45.128Z,10.78
2022-10-21T11:55:25.572Z,10.68
2022-10-21T11:58:12.270Z,10.90
2022-10-21T12:00:49.754Z,11.60
2022-10-21T12:03:31.005Z,11.28
2022-10-21T12:06:04.229Z,11.95
2022-10-21T12:08:41.392Z,11.97
2022-10-21T12:11:14.855Z,11.25
2022-10-21T12:13:49.227Z,11.50
2022-10-21T12:16:30.206Z,11.53
2022-10-21T12:19:02.087Z,13.48
2022-10-21T12:21:36.445Z,11.60
2022-10-21T12:24:29.147Z,10.98
2022-10-21T12:27:12.956Z,11.50
2022-10-21T12:30:02.380Z,11.28
2022-10-21T12:32:54.239Z,11.80
2022-10-21T12:35:28.775Z,12.45
2022-10-21T12:38:00.753Z,12.00
2022-10-21T12:40:33.175Z,12.13
2022-10-21T12:43:05.061Z,11.15
2022-10-21T12:45:35.969Z,11.08
2022-10-21T12:48:10.075Z,10.70
2022-10-21T12:50:38.715Z,11.83
2022-10-21T12:53:18.868Z,10.68
2022-10-21T12:55:53.296Z,10.68
2022-10-21T12:58:37.684Z,11.20
2022-10-21T13:01:08.499Z,10.93
2022-10-21T13:03:52.343Z,11.35
2022-10-21T13:06:42.303Z,11.10
2022-10-21T13:09:36.626Z,10.70
2022-10-21T13:12:11.432Z,10.78
2022-10-21T13:14:43.038Z,11.43
2022-10-21T13:17:29.711Z,11.85
2022-10-21T13:20:07.091Z,12.07
2022-10-21T13:22:40.538Z,10.82
2022-10-21T13:25:18.392Z,10.82
2022-10-21T13:27:57.622Z,10.68
2022-10-21T13:30:34.717Z,10.58
2022-10-21T13:33:08.630Z,10.93
2022-10-21T13:35:46.388Z,10.55
2022-10-21T13:38:24.317Z,11.85
2022-10-21T13:41:04.869Z,10.53
2022-10-21T13:43:44.213Z,10.15
2022-10-21T13:46:21.098Z,10.35
2022-10-21T13:48:50.575Z,10.28
2022-10-21T13:51:25.992Z,10.35
2022-10-21T13:53:57.609Z,10.35
2022-10-21T13:56:29.026Z,10.10
2022-10-21T13:58:57.814Z,10.28
2022-10-21T14:01:33.383Z,9.95
2022-10-21T14:04:23.132Z,9.53
2022-10-21T14:06:59.397Z,9.33
2022-10-21T14:09:39.930Z,9.20
2022-10-21T14:12:11.855Z,9.18
2022-10-21T14:14:40.856Z,9.10
2022-10-21T14:17:24.984Z,9.53
2022-10-21T14:19:56.732Z,9.60
2022-10-21T14:22:29.160Z,9.30
2022-10-21T14:25:02.925Z,8.98
2022-10-21T14:27:34.827Z,9.38
2022-10-21T14:30:06.231Z,9.48
2022-10-21T14:32:35.829Z,10.03
2022-10-21T14:35:16.581Z,8.75
2022-10-21T14:37:54.153Z,9.15
2022-10-21T14:40:34.677Z,10.13
2022-10-21T14:43:09.296Z,9.13
2022-10-21T14:45:40.986Z,9.40
2022-10-21T14:48:25.865Z,8.80
2022-10-21T14:51:03.395Z,8.88
2022-10-21T14:53:34.900Z,9.28
2022-10-21T14:56:08.403Z,12.90
2022-10-21T14:58:42.200Z,11.97
2022-10-21T15:01:17.213Z,9.83
2022-10-21T15:03:51.076Z,17.32
2022-10-21T15:06:25.762Z,10.78
2022-10-21T15:09:08.902Z,11.05
2022-10-21T15:11:43.468Z,11.28
2022-10-21T15:14:18.053Z,10.55
2022-10-21T15:16:55.635Z,12.23
2022-10-21T15:19:52.822Z,11.35
2022-10-21T15:22:37.881Z,10.55
2022-10-21T15:25:10.071Z,11.73
2022-10-21T15:27:43.658Z,12.40
2022-10-21T15:30:18.895Z,15.83
2022-10-21T15:32:48.446Z,15.80
2022-10-21T15:35:25.512Z,15.13
2022-10-21T15:37:55.501Z,14.87
2022-10-21T15:40:24.744Z,17.40
2022-10-21T15:42:55.026Z,14.93
2022-10-21T15:45:23.988Z,15.03
2022-10-21T15:47:54.485Z,14.18
2022-10-21T15:50:26.538Z,29.52
2022-10-21T15:53:00.709Z,19.42
2022-10-21T15:55:29.369Z,14.65
2022-10-21T15:57:58.063Z,17.52
2022-10-21T16:00:26.745Z,17.00
2022-10-21T16:02:57.439Z,17.55
2022-10-21T16:05:26.397Z,15.60
2022-10-21T16:07:55.046Z,15.15
2022-10-21T16:10:36.699Z,17.40
2022-10-21T16:13:05.470Z,17.35
2022-10-21T16:15:34.028Z,17.25
2022-10-21T16:18:02.667Z,16.65
2022-10-21T16:20:34.672Z,18.25
2022-10-21T16:23:03.502Z,16.93
2022-10-21T16:25:33.554Z,17.02
2022-10-21T16:28:03.000Z,17.45
2022-10-21T16:30:38.830Z,17.70
2022-10-21T16:33:07.682Z,17.98
2022-10-21T16:35:38.020Z,16.75
2022-10-21T16:38:08.149Z,69.15
2022-10-21T16:40:36.923Z,25.70
2022-10-21T16:43:05.605Z,20.72
2022-10-21T16:45:34.533Z,17.37
2022-10-21T16:48:05.284Z,17.23
2022-10-21T16:50:42.914Z,17.20
2022-10-21T16:53:18.502Z,17.80
2022-10-21T16:55:48.689Z,17.30
2022-10-21T16:58:17.507Z,19.17
2022-10-21T17:00:47.883Z,18.73
2022-10-21T17:03:16.420Z,18.67
2022-10-21T17:05:44.997Z,21.20
2022-10-21T17:08:13.695Z,22.45
2022-10-21T17:10:42.344Z,21.30
2022-10-21T17:13:12.416Z,20.72
2022-10-21T17:15:42.996Z,21.62
2022-10-21T17:18:15.836Z,22.93
2022-10-21T17:20:43.651Z,22.45
2022-10-21T17:23:14.345Z,22.45
2022-10-21T17:25:42.968Z,22.47
2022-10-21T17:28:16.482Z,21.50
2022-10-21T17:30:45.280Z,19.90
2022-10-21T17:33:15.560Z,20.65
2022-10-21T17:35:46.864Z,19.12
2022-10-21T17:38:17.781Z,18.90
2022-10-21T17:40:56.886Z,18.27
2022-10-21T17:43:32.637Z,17.87
2022-10-21T17:46:01.270Z,17.70
2022-10-21T17:48:29.983Z,18.35
2022-10-21T17:51:01.114Z,16.20
2022-10-21T17:53:31.553Z,15.88
2022-10-21T17:56:02.041Z,15.05
2022-10-21T17:58:34.646Z,14.90
2022-10-21T18:01:10.934Z,16.48
2022-10-21T18:03:42.988Z,14.68
2022-10-21T18:06:16.213Z,15.10
2022-10-21T18:08:48.007Z,15.58
2022-10-21T18:11:26.175Z,14.63
2022-10-21T18:14:00.597Z,14.30
2022-10-21T18:16:34.275Z,14.10
2022-10-21T18:19:05.954Z,14.33
2022-10-21T18:21:35.522Z,15.23
2022-10-21T18:24:07.396Z,15.23
2022-10-21T18:26:39.667Z,14.47
2022-10-21T18:29:09.988Z,14.35
2022-10-21T18:31:46.096Z,14.33
2022-10-21T18:40:35.763Z,15.65
2022-10-21T18:43:08.976Z,14.35
2022-10-21T18:45:46.373Z,14.20
2022-10-21T18:48:17.075Z,13.88
2022-10-21T18:50:47.201Z,14.65
2022-10-21T18:53:22.038Z,15.60
2022-10-21T18:55:50.576Z,15.97
2022-10-21T18:58:20.615Z,15.03
2022-10-21T19:00:51.035Z,14.43
2022-10-21T19:03:20.025Z,15.47
2022-10-21T19:05:52.707Z,15.18
2022-10-21T19:08:21.400Z,15.63
2022-10-21T19:10:53.023Z,14.90
2022-10-21T19:13:21.624Z,15.55
2022-10-21T19:15:50.189Z,14.90
2022-10-21T19:18:18.819Z,14.87
2022-10-21T19:20:47.432Z,14.87
2022-10-21T19:23:19.183Z,15.23
2022-10-21T19:25:50.143Z,16.17
2022-10-21T19:28:18.367Z,15.20
2022-10-21T19:30:47.025Z,15.30
2022-10-21T19:33:15.676Z,16.32
2022-10-21T19:35:44.240Z,14.77
2022-10-21T19:38:20.799Z,15.73
2022-10-21T19:40:43.177Z,15.63
2022-10-21T19:43:11.790Z,15.75
2022-10-21T19:45:42.020Z,15.45
2022-10-21T19:48:10.617Z,15.00
2022-10-21T19:50:42.245Z,15.80
2022-10-21T19:53:16.878Z,15.72
2022-10-21T19:56:00.590Z,18.60
2022-10-21T19:58:29.514Z,16.10
2022-10-21T20:01:18.075Z,15.53
2022-10-21T20:03:55.756Z,15.55
2022-10-21T20:06:45.042Z,15.43
2022-10-21T20:09:26.148Z,14.90
2022-10-21T20:11:56.939Z,15.10
2022-10-21T20:14:28.668Z,15.90
2022-10-21T20:16:57.462Z,15.77
2022-10-21T20:19:30.742Z,16.33
2022-10-21T20:21:59.403Z,16.70
2022-10-21T20:24:28.075Z,15.72
2022-10-21T20:26:59.808Z,16.03
2022-10-21T20:29:26.985Z,17.00
2022-10-21T20:31:55.731Z,15.57
2022-10-21T20:34:29.596Z,15.57
2022-10-21T20:37:01.389Z,16.40
2022-10-21T20:39:31.140Z,16.67
2022-10-21T20:42:01.266Z,16.32
2022-10-21T20:47:15.554Z,16.97
2022-10-21T20:49:44.727Z,17.57
2022-10-21T20:52:16.148Z,17.63
2022-10-21T20:54:44.862Z,16.20
2022-10-21T20:57:15.285Z,16.63
2022-10-21T20:59:46.225Z,16.83
2022-10-21T21:02:15.141Z,18.03
2022-10-21T21:04:44.292Z,17.20
2022-10-21T21:07:15.419Z,17.33
2022-10-21T21:10:01.714Z,16.63
2022-10-21T21:12:15.622Z,15.80
2022-10-21T21:14:44.125Z,17.03
2022-10-21T21:17:12.877Z,17.33
2022-10-21T21:19:41.673Z,15.90
2022-10-21T21:22:13.181Z,17.60
2022-10-21T21:24:43.316Z,17.10
2022-10-21T21:27:11.916Z,16.43
2022-10-21T21:29:42.066Z,15.70
2022-10-21T21:32:10.720Z,17.17
2022-10-21T21:34:39.466Z,17.80
2022-10-21T21:37:10.674Z,16.47
2022-10-21T21:39:39.372Z,17.43
2022-10-21T21:42:08.586Z,18.03
2022-10-21T21:44:37.232Z,18.07
2022-10-21T21:47:06.349Z,16.13
2022-10-21T21:49:46.422Z,18.30
2022-10-21T21:52:16.087Z,17.43
2022-10-21T21:54:46.219Z,16.93
2022-10-21T21:57:27.199Z,17.57
2022-10-21T21:59:45.640Z,17.27
2022-10-21T22:02:14.893Z,18.17
2022-10-21T22:04:44.974Z,17.93
2022-10-21T22:07:15.138Z,18.73
2022-10-21T22:09:43.775Z,19.03
2022-10-21T22:12:17.055Z,19.73
2022-10-21T22:14:47.863Z,19.83
2022-10-21T22:17:17.890Z,19.70
2022-10-21T22:19:49.551Z,19.60
2022-10-21T22:22:17.612Z,19.17
2022-10-21T22:24:47.649Z,20.23
2022-10-21T22:27:16.212Z,20.17
2022-10-21T22:29:45.005Z,20.47
2022-10-21T22:32:13.697Z,20.47
2022-10-21T22:34:42.224Z,20.10
2022-10-21T22:37:10.855Z,21.27
2022-10-21T22:39:39.378Z,22.57
2022-10-21T22:42:08.330Z,24.07
2022-10-21T22:44:37.267Z,23.97
2022-10-21T22:47:07.677Z,23.57
2022-10-21T22:49:36.273Z,24.70
2022-10-21T22:52:04.942Z,24.13
2022-10-21T22:54:48.436Z,24.77
2022-10-21T22:57:03.873Z,24.53
2022-10-21T22:59:32.480Z,27.33
2022-10-21T23:02:01.060Z,24.40
2022-10-21T23:04:29.723Z,25.97
2022-10-21T23:06:58.320Z,25.23
2022-10-21T23:09:27.006Z,25.20
2022-10-21T23:11:55.613Z,24.97
2022-10-21T23:14:24.328Z,25.27
2022-10-21T23:16:53.485Z,25.10
2022-10-21T23:19:22.121Z,25.00
2022-10-21T23:21:50.731Z,24.10
2022-10-21T23:24:19.618Z,24.20
2022-10-21T23:26:48.220Z,25.07
2022-10-21T23:29:16.915Z,26.10
2022-10-21T23:31:45.658Z,27.17
2022-10-21T23:34:14.472Z,25.57
2022-10-21T23:36:43.010Z,26.50
2022-10-21T23:39:12.812Z,25.07
2022-10-21T23:41:42.535Z,26.50
2022-10-21T23:44:11.137Z,25.87
2022-10-21T23:46:40.291Z,27.30
2022-10-21T23:49:08.971Z,26.73
2022-10-21T23:51:37.758Z,27.43
2022-10-21T23:54:06.400Z,26.53
2022-10-21T23:56:35.424Z,27.87
2022-10-21T23:59:04.503Z,27.73
